| time (UTC) | temp F | wind direction | speed knots | gust knots | rain 1hr in | rain 24hr in | rain mn in | humidity % | barometer mb |
| 20260502180824 | 66 | 74 | 0.0 | 2.6 | 0.00 | 0.04 | 0.01 | 79 | 1017.2 |
| 20260502180334 | 66 | 74 | 0.0 | 2.6 | 0.00 | 0.04 | 0.01 | 79 | 1017.4 |
| 20260502170338 | 68 | 72 | 1.7 | 7.0 | 0.00 | 0.04 | 0.01 | 77 | 1016.8 |
| 20260502164326 | 70 | 72 | 2.6 | 6.1 | 0.00 | 0.04 | 0.01 | 76 | 1016.8 |
| 20260502163823 | 70 | 72 | 1.7 | 4.3 | 0.00 | 0.04 | 0.01 | 76 | 1016.9 |
| 20260502163334 | 70 | 72 | 0.9 | 7.0 | 0.00 | 0.04 | 0.01 | 76 | 1017.0 |
| 20260502162824 | 70 | 72 | 2.6 | 7.8 | 0.00 | 0.04 | 0.01 | 76 | 1017.0 |
| 20260502162334 | 70 | 70 | 2.6 | 7.8 | 0.00 | 0.04 | 0.01 | 76 | 1016.9 |
| 20260502161828 | 70 | 71 | 0.9 | 6.1 | 0.00 | 0.04 | 0.01 | 76 | 1016.8 |
| 20260502161321 | 71 | 71 | 1.7 | 7.8 | 0.00 | 0.04 | 0.01 | 75 | 1016.9 |
| 20260502160835 | 71 | 72 | 1.7 | 7.8 | 0.00 | 0.04 | 0.01 | 75 | 1016.9 |
| 20260502160339 | 71 | 71 | 2.6 | 7.0 | 0.00 | 0.04 | 0.01 | 74 | 1017.2 |
| 20260502152335 | 71 | 69 | 1.7 | 7.0 | 0.00 | 0.04 | 0.01 | 75 | 1017.6 |
| 20260502151825 | 71 | 67 | 1.7 | 7.0 | 0.00 | 0.04 | 0.01 | 75 | 1017.7 |
| 20260502151323 | 71 | 71 | 0.9 | 6.1 | 0.00 | 0.04 | 0.01 | 74 | 1017.9 |
| 20260502150833 | 71 | 71 | 0.9 | 8.7 | 0.00 | 0.04 | 0.01 | 74 | 1017.9 |
| 20260502150327 | 70 | 71 | 1.7 | 8.7 | 0.00 | 0.04 | 0.01 | 75 | 1017.8 |
| 20260502130338 | 73 | 69 | 1.7 | 9.6 | 0.00 | 0.04 | 0.01 | 72 | 1018.8 |
| 20260502123331 | 70 | 46 | 1.7 | 5.2 | 0.00 | 0.04 | 0.01 | 76 | 1019.0 |
| 20260502122822 | 70 | 43 | 2.6 | 5.2 | 0.00 | 0.04 | 0.01 | 77 | 1019.2 |
| 20260502122333 | 70 | 42 | 2.6 | 5.2 | 0.00 | 0.04 | 0.01 | 77 | 1019.3 |
| 20260502121842 | 69 | 42 | 0.9 | 6.1 | 0.00 | 0.04 | 0.01 | 78 | 1019.3 |
| 20260502121336 | 69 | 42 | 0.9 | 6.1 | 0.00 | 0.04 | 0.01 | 79 | 1019.2 |
| 20260502120829 | 69 | 40 | 0.9 | 5.2 | 0.00 | 0.04 | 0.01 | 79 | 1019.3 |
| 20260502120340 | 69 | 40 | 1.7 | 5.2 | 0.00 | 0.04 | 0.01 | 80 | 1019.2 |
| 20260502115830 | 68 | 40 | 0.9 | 5.2 | 0.00 | 0.04 | 0.01 | 79 | 1019.1 |
| 20260502115332 | 68 | 40 | 1.7 | 5.2 | 0.00 | 0.04 | 0.01 | 79 | 1019.2 |
| 20260502114843 | 68 | 39 | 0.0 | 4.3 | 0.00 | 0.04 | 0.01 | 79 | 1019.5 |
| 20260502114333 | 68 | 39 | 0.9 | 3.5 | 0.00 | 0.04 | 0.01 | 80 | 1019.7 |
| 20260502113827 | 68 | 39 | 1.7 | 5.2 | 0.00 | 0.04 | 0.01 | 81 | 1019.7 |
| 20260502113337 | 68 | 39 | 1.7 | 5.2 | 0.00 | 0.04 | 0.01 | 81 | 1019.7 |
| 20260502112828 | 68 | 39 | 1.7 | 5.2 | 0.00 | 0.04 | 0.01 | 81 | 1019.6 |
| 20260502112341 | 68 | 38 | 1.7 | 5.2 | 0.00 | 0.04 | 0.01 | 82 | 1019.6 |
| 20260502111832 | 67 | 38 | 0.9 | 5.2 | 0.00 | 0.04 | 0.01 | 82 | 1019.5 |
| 20260502111329 | 67 | 38 | 1.7 | 5.2 | 0.00 | 0.04 | 0.01 | 82 | 1019.5 |
| 20260502110839 | 67 | 36 | 0.9 | 6.1 | 0.00 | 0.04 | 0.01 | 82 | 1019.6 |
| 20260502110330 | 67 | 34 | 2.6 | 6.1 | 0.00 | 0.04 | 0.01 | 83 | 1019.7 |
| 20260502105823 | 67 | 27 | 0.9 | 4.3 | 0.00 | 0.04 | 0.01 | 83 | 1019.7 |
| 20260502105333 | 67 | 27 | 0.9 | 5.2 | 0.00 | 0.04 | 0.01 | 83 | 1019.8 |
| 20260502104828 | 67 | 27 | 1.7 | 7.0 | 0.00 | 0.04 | 0.01 | 83 | 1019.8 |
| 20260502104341 | 67 | 26 | 1.7 | 7.0 | 0.00 | 0.04 | 0.01 | 83 | 1019.9 |
| 20260502103831 | 67 | 360 | 2.6 | 5.2 | 0.00 | 0.04 | 0.01 | 84 | 1020.0 |
| 20260502103328 | 67 | 351 | 0.9 | 4.3 | 0.00 | 0.04 | 0.01 | 83 | 1020.0 |
| 20260502102819 | 66 | 351 | 0.0 | 0.9 | 0.00 | 0.04 | 0.01 | 84 | 1020.0 |
| 20260502102332 | 66 | 351 | 0.0 | 0.0 | 0.00 | 0.04 | 0.01 | 83 | 1020.1 |
| 20260502101843 | 66 | 351 | 0.0 | 0.0 | 0.04 | 0.04 | 0.01 | 83 | 1020.2 |
| 20260502101333 | 66 | 351 | 0.0 | 0.0 | 0.04 | 0.04 | 0.01 | 83 | 1020.3 |
| 20260502100827 | 66 | 351 | 0.0 | 0.0 | 0.04 | 0.04 | 0.01 | 83 | 1020.3 |
| 20260502100331 | 66 | 351 | 0.0 | 0.0 | 0.04 | 0.04 | 0.01 | 83 | 1020.3 |
| 20260502091329 | 67 | 351 | 0.0 | 0.9 | 0.00 | 0.04 | 0.00 | 80 | 1020.4 |
| 20260502090823 | 67 | 351 | 0.0 | 2.6 | 0.00 | 0.04 | 0.00 | 80 | 1020.5 |
| 20260502090334 | 67 | 351 | 0.0 | 2.6 | 0.00 | 0.04 | 0.00 | 79 | 1020.5 |
| 20260502071334 | 65 | 351 | 0.0 | 0.0 | 0.00 | 0.28 | 0.00 | 83 | 1020.4 |
| 20260502070827 | 64 | 351 | 0.0 | 0.0 | 0.00 | 0.28 | 0.00 | 83 | 1020.4 |
| 20260502070318 | 64 | 351 | 0.0 | 0.0 | 0.00 | 0.28 | 0.00 | 83 | 1020.4 |
| 20260502065831 | 64 | 351 | 0.0 | 0.0 | 0.00 | 0.28 | 0.00 | 84 | 1020.4 |
| 20260502065327 | 64 | 351 | 0.0 | 0.0 | 0.00 | 0.28 | 0.00 | 84 | 1020.5 |
| 20260502064821 | 64 | 351 | 0.0 | 0.0 | 0.00 | 0.28 | 0.00 | 84 | 1020.5 |
| 20260502064333 | 64 | 351 | 0.0 | 0.0 | 0.00 | 0.28 | 0.00 | 84 | 1020.6 |
| 20260502063826 | 64 | 351 | 0.0 | 0.0 | 0.00 | 0.28 | 0.00 | 84 | 1020.6 |
| 20260502063335 | 63 | 351 | 0.0 | 0.0 | 0.00 | 0.28 | 0.00 | 83 | 1020.6 |
| 20260502062833 | 63 | 351 | 0.0 | 0.0 | 0.00 | 0.28 | 0.00 | 83 | 1020.6 |
| 20260502062327 | 63 | 351 | 0.0 | 0.0 | 0.00 | 0.28 | 0.00 | 83 | 1020.5 |
| 20260502061837 | 63 | 351 | 0.0 | 0.0 | 0.00 | 0.28 | 0.00 | 83 | 1020.5 |
| 20260502061328 | 63 | 351 | 0.0 | 0.0 | 0.00 | 0.28 | 0.00 | 83 | 1020.5 |
| 20260502060824 | 63 | 351 | 0.0 | 0.0 | 0.00 | 0.28 | 0.00 | 83 | 1020.3 |
| 20260502060335 | 63 | 351 | 0.0 | 0.0 | 0.00 | 0.28 | 0.00 | 83 | 1020.4 |
| 20260502055825 | 63 | 351 | 0.0 | 0.0 | 0.00 | 0.28 | 0.00 | 83 | 1020.3 |
| 20260502055336 | 63 | 351 | 0.0 | 0.0 | 0.00 | 0.28 | 0.00 | 83 | 1020.3 |
| 20260502054833 | 63 | 351 | 0.0 | 0.0 | 0.00 | 0.28 | 0.00 | 83 | 1020.3 |
| 20260502054327 | 63 | 351 | 0.0 | 0.0 | 0.00 | 0.28 | 0.00 | 83 | 1020.2 |
| 20260502053837 | 63 | 351 | 0.0 | 1.7 | 0.00 | 0.28 | 0.00 | 83 | 1020.2 |
| 20260502053328 | 63 | 351 | 0.0 | 2.6 | 0.00 | 0.28 | 0.00 | 83 | 1020.1 |
| 20260502052839 | 63 | 351 | 0.9 | 2.6 | 0.00 | 0.28 | 0.00 | 83 | 1020.1 |
| 20260502052329 | 63 | 351 | 0.0 | 0.9 | 0.00 | 0.28 | 0.00 | 83 | 1020.1 |
| 20260502051839 | 63 | 351 | 0.0 | 1.7 | 0.00 | 0.28 | 0.00 | 83 | 1020.0 |
| 20260502051330 | 63 | 351 | 0.0 | 1.7 | 0.00 | 0.28 | 0.00 | 83 | 1020.0 |
| 20260502050827 | 63 | 351 | 0.0 | 1.7 | 0.00 | 0.28 | 0.00 | 83 | 1020.0 |
| 20260502050317 | 63 | 351 | 0.0 | 1.7 | 0.00 | 0.28 | 0.00 | 83 | 1020.1 |
| 20260502045834 | 63 | 351 | 0.9 | 1.7 | 0.00 | 0.28 | 0.00 | 83 | 1020.2 |
| 20260502045327 | 63 | 351 | 0.0 | 0.0 | 0.00 | 0.28 | 0.00 | 83 | 1020.1 |
| 20260502044821 | 63 | 351 | 0.0 | 0.0 | 0.00 | 0.28 | 0.00 | 83 | 1020.1 |
| 20260502044331 | 63 | 351 | 0.0 | 0.0 | 0.00 | 0.28 | 0.00 | 83 | 1020.2 |
| 20260502043827 | 63 | 351 | 0.0 | 1.7 | 0.00 | 0.28 | 0.00 | 83 | 1020.2 |
| 20260502043321 | 63 | 351 | 0.0 | 1.7 | 0.00 | 0.28 | 0.00 | 83 | 1020.2 |
| 20260502042838 | 63 | 351 | 0.0 | 0.9 | 0.00 | 0.28 | 0.00 | 83 | 1020.2 |
| 20260502042329 | 63 | 351 | 0.0 | 0.9 | 0.00 | 0.28 | 0.00 | 83 | 1020.2 |
| 20260502041818 | 63 | 351 | 0.0 | 0.9 | 0.00 | 0.28 | 0.00 | 83 | 1020.2 |
| 20260502041329 | 63 | 351 | 0.0 | 1.7 | 0.00 | 0.28 | 0.00 | 83 | 1020.3 |
| 20260502040822 | 63 | 351 | 0.0 | 1.7 | 0.00 | 0.28 | 0.00 | 83 | 1020.3 |
| 20260502040327 | 63 | 351 | 0.0 | 1.7 | 0.00 | 0.28 | 0.00 | 83 | 1020.3 |
| 20260502035817 | 63 | 351 | 0.0 | 1.7 | 0.00 | 0.28 | 0.00 | 83 | 1020.3 |
| 20260502035327 | 63 | 351 | 0.0 | 1.7 | 0.00 | 0.28 | 0.00 | 83 | 1020.4 |
| 20260502034825 | 63 | 351 | 0.0 | 0.9 | 0.00 | 0.28 | 0.00 | 83 | 1020.4 |
| 20260502034315 | 63 | 351 | 0.0 | 2.6 | 0.00 | 0.28 | 0.00 | 83 | 1020.4 |
| 20260502033829 | 63 | 351 | 0.9 | 2.6 | 0.00 | 0.28 | 0.00 | 83 | 1020.5 |
| 20260502033322 | 63 | 351 | 0.9 | 1.7 | 0.00 | 0.28 | 0.00 | 83 | 1020.5 |
| 20260502032833 | 63 | 351 | 0.0 | 0.9 | 0.00 | 0.28 | 0.00 | 83 | 1020.4 |
| 20260502032324 | 63 | 351 | 0.0 | 1.7 | 0.00 | 0.28 | 0.00 | 83 | 1020.4 |
| 20260502031837 | 63 | 351 | 0.0 | 1.7 | 0.00 | 0.28 | 0.00 | 83 | 1020.3 |
| 20260502031327 | 63 | 351 | 0.0 | 1.7 | 0.00 | 0.28 | 0.00 | 83 | 1020.2 |
| 20260502030828 | 63 | 351 | 0.0 | 0.0 | 0.00 | 0.28 | 0.00 | 83 | 1020.2 |
| 20260502030323 | 63 | 351 | 0.0 | 0.9 | 0.00 | 0.28 | 0.00 | 83 | 1020.2 |
| 20260502025830 | 63 | 351 | 0.0 | 0.9 | 0.00 | 0.31 | 0.00 | 83 | 1020.2 |
| 20260502025323 | 63 | 351 | 0.0 | 0.0 | 0.00 | 0.31 | 0.00 | 83 | 1020.3 |
| 20260502024836 | 63 | 351 | 0.0 | 0.0 | 0.00 | 0.31 | 0.00 | 83 | 1020.3 |
| 20260502024327 | 63 | 351 | 0.0 | 0.0 | 0.00 | 0.31 | 0.00 | 83 | 1020.3 |
| 20260502023837 | 63 | 351 | 0.0 | 0.0 | 0.00 | 0.31 | 0.00 | 83 | 1020.4 |
| 20260502023328 | 63 | 351 | 0.0 | 0.0 | 0.00 | 0.31 | 0.00 | 83 | 1020.4 |
| 20260502022823 | 63 | 351 | 0.0 | 0.0 | 0.00 | 0.31 | 0.00 | 83 | 1020.4 |
| 20260502022333 | 63 | 351 | 0.0 | 0.0 | 0.00 | 0.31 | 0.00 | 83 | 1020.5 |
| 20260502021827 | 63 | 351 | 0.0 | 0.9 | 0.00 | 0.31 | 0.00 | 83 | 1020.5 |
| 20260502021317 | 63 | 351 | 0.0 | 0.0 | 0.00 | 0.31 | 0.00 | 83 | 1020.6 |
| 20260502020829 | 63 | 351 | 0.0 | 1.7 | 0.00 | 0.31 | 0.00 | 83 | 1020.6 |
| 20260502020333 | 63 | 351 | 0.0 | 1.7 | 0.00 | 0.31 | 0.00 | 83 | 1020.6 |
| 20260502015823 | 63 | 351 | 0.0 | 1.7 | 0.00 | 0.31 | 0.00 | 83 | 1020.6 |
| 20260502015333 | 63 | 351 | 0.0 | 2.6 | 0.00 | 0.31 | 0.00 | 83 | 1020.7 |
| 20260502014827 | 63 | 351 | 0.9 | 2.6 | 0.00 | 0.31 | 0.00 | 83 | 1020.7 |
| 20260502014321 | 63 | 351 | 0.0 | 2.6 | 0.00 | 0.31 | 0.00 | 83 | 1020.7 |
| 20260502013812 | 63 | 351 | 0.9 | 2.6 | 0.00 | 0.31 | 0.00 | 83 | 1020.7 |
| 20260502013328 | 63 | 351 | 0.9 | 1.7 | 0.00 | 0.31 | 0.00 | 83 | 1020.8 |
| 20260502012333 | 63 | 351 | 0.0 | 2.6 | 0.00 | 0.31 | 0.00 | 83 | 1020.8 |
| 20260502011822 | 63 | 351 | 0.0 | 2.6 | 0.00 | 0.31 | 0.00 | 83 | 1020.9 |
| 20260502011333 | 63 | 351 | 0.0 | 3.5 | 0.00 | 0.31 | 0.00 | 83 | 1020.9 |
| 20260502010823 | 63 | 351 | 0.9 | 4.3 | 0.00 | 0.31 | 0.00 | 83 | 1020.9 |
| 20260502010337 | 63 | 351 | 2.6 | 4.3 | 0.00 | 0.31 | 0.00 | 84 | 1020.9 |
| 20260502005828 | 63 | 351 | 1.7 | 2.6 | 0.00 | 0.31 | 0.00 | 84 | 1020.9 |
| 20260502005321 | 63 | 351 | 0.0 | 0.9 | 0.00 | 0.31 | 0.00 | 84 | 1021.0 |
| 20260502004834 | 63 | 351 | 0.0 | 2.6 | 0.00 | 0.31 | 0.00 | 84 | 1021.0 |
| 20260502004327 | 63 | 351 | 0.0 | 2.6 | 0.00 | 0.31 | 0.00 | 84 | 1021.0 |
| 20260502003824 | 63 | 351 | 0.0 | 0.0 | 0.00 | 0.31 | 0.00 | 84 | 1021.1 |
| 20260502003334 | 63 | 351 | 0.0 | 0.9 | 0.00 | 0.31 | 0.00 | 84 | 1021.1 |
| 20260502002825 | 63 | 351 | 0.0 | 0.9 | 0.00 | 0.31 | 0.00 | 84 | 1021.3 |
| 20260502002322 | 62 | 351 | 0.0 | 0.0 | 0.00 | 0.31 | 0.00 | 84 | 1021.3 |
| 20260502001815 | 62 | 351 | 0.0 | 2.6 | 0.00 | 0.31 | 0.00 | 84 | 1021.3 |
| 20260502001328 | 62 | 351 | 0.9 | 2.6 | 0.00 | 0.31 | 0.00 | 84 | 1021.4 |
| 20260502000822 | 62 | 351 | 0.9 | 1.7 | 0.00 | 0.31 | 0.00 | 84 | 1021.5 |
| 20260502000333 | 62 | 351 | 0.0 | 0.9 | 0.00 | 0.31 | 0.00 | 84 | 1021.6 |
| 20260501235823 | 62 | 351 | 0.0 | 1.7 | 0.00 | 0.31 | 0.00 | 84 | 1021.6 |
| 20260501235334 | 62 | 351 | 0.0 | 1.7 | 0.00 | 0.31 | 0.00 | 84 | 1021.6 |
| 20260501234824 | 62 | 351 | 0.0 | 0.9 | 0.00 | 0.31 | 0.00 | 84 | 1021.7 |
| 20260501234319 | 62 | 351 | 0.0 | 0.9 | 0.00 | 0.31 | 0.00 | 84 | 1021.7 |
| 20260501233811 | 62 | 351 | 0.0 | 1.7 | 0.00 | 0.31 | 0.00 | 84 | 1021.7 |
| 20260501233329 | 62 | 351 | 0.9 | 1.7 | 0.00 | 0.31 | 0.00 | 84 | 1021.9 |
| 20260501232823 | 62 | 351 | 0.0 | 1.7 | 0.00 | 0.31 | 0.00 | 84 | 1021.8 |
| 20260501232333 | 62 | 351 | 0.9 | 1.7 | 0.00 | 0.31 | 0.00 | 84 | 1021.9 |
| 20260501231827 | 62 | 351 | 0.9 | 2.6 | 0.00 | 0.31 | 0.00 | 84 | 1021.9 |
| 20260501231337 | 62 | 351 | 0.9 | 2.6 | 0.00 | 0.31 | 0.00 | 84 | 1022.0 |
| 20260501230828 | 62 | 351 | 0.0 | 1.7 | 0.00 | 0.31 | 0.00 | 84 | 1021.8 |
| 20260501230322 | 62 | 351 | 0.9 | 2.6 | 0.00 | 0.31 | 0.00 | 84 | 1021.9 |
| 20260501225833 | 62 | 351 | 0.9 | 1.7 | 0.00 | 0.31 | 0.00 | 84 | 1021.9 |
| 20260501225326 | 62 | 351 | 0.0 | 1.7 | 0.00 | 0.31 | 0.00 | 84 | 1021.8 |
| 20260501224819 | 62 | 351 | 0.0 | 0.0 | 0.00 | 0.31 | 0.00 | 84 | 1021.9 |
| 20260501224333 | 62 | 351 | 0.0 | 0.0 | 0.00 | 0.31 | 0.00 | 84 | 1021.9 |
| 20260501223823 | 62 | 351 | 0.0 | 0.0 | 0.00 | 0.31 | 0.00 | 84 | 1021.9 |
| 20260501223334 | 62 | 351 | 0.0 | 0.0 | 0.00 | 0.31 | 0.00 | 84 | 1021.9 |
| 20260501222824 | 62 | 351 | 0.0 | 0.0 | 0.00 | 0.31 | 0.00 | 84 | 1021.9 |
| 20260501222339 | 63 | 351 | 0.0 | 0.9 | 0.00 | 0.31 | 0.00 | 84 | 1021.9 |
| 20260501221829 | 63 | 351 | 0.0 | 2.6 | 0.00 | 0.31 | 0.00 | 84 | 1021.9 |
| 20260501221339 | 62 | 351 | 1.7 | 2.6 | 0.00 | 0.31 | 0.00 | 84 | 1021.9 |
| 20260501220830 | 62 | 351 | 0.9 | 1.7 | 0.00 | 0.31 | 0.00 | 84 | 1022.0 |
| 20260501220338 | 62 | 351 | 0.9 | 1.7 | 0.00 | 0.31 | 0.00 | 84 | 1022.0 |
| 20260501215828 | 62 | 351 | 0.0 | 1.7 | 0.00 | 0.31 | 0.06 | 84 | 1022.1 |
| 20260501215341 | 62 | 351 | 0.0 | 1.7 | 0.00 | 0.31 | 0.06 | 84 | 1022.2 |
| 20260501214832 | 62 | 351 | 0.0 | 1.7 | 0.00 | 0.31 | 0.06 | 84 | 1022.2 |
| 20260501214329 | 62 | 351 | 0.0 | 1.7 | 0.00 | 0.31 | 0.06 | 84 | 1022.2 |
| 20260501213839 | 62 | 351 | 0.9 | 1.7 | 0.00 | 0.31 | 0.06 | 84 | 1022.2 |
| 20260501213330 | 62 | 351 | 0.9 | 2.6 | 0.00 | 0.31 | 0.06 | 84 | 1022.2 |
| 20260501212823 | 62 | 351 | 0.9 | 2.6 | 0.00 | 0.31 | 0.06 | 84 | 1022.2 |
| 20260501212334 | 62 | 351 | 0.9 | 1.7 | 0.00 | 0.31 | 0.06 | 84 | 1022.3 |
| 20260501211824 | 62 | 351 | 0.0 | 0.9 | 0.00 | 0.31 | 0.06 | 84 | 1022.4 |
| 20260501211334 | 62 | 351 | 0.0 | 0.9 | 0.00 | 0.31 | 0.06 | 84 | 1022.5 |
| 20260501210828 | 63 | 351 | 0.0 | 0.9 | 0.00 | 0.31 | 0.06 | 83 | 1022.5 |
| 20260501210325 | 63 | 351 | 0.0 | 1.7 | 0.00 | 0.31 | 0.06 | 83 | 1022.4 |
| 20260501205838 | 63 | 351 | 0.0 | 3.5 | 0.00 | 0.31 | 0.06 | 84 | 1022.4 |
| 20260501205329 | 63 | 351 | 0.0 | 3.5 | 0.00 | 0.31 | 0.06 | 84 | 1022.4 |
| 20260501204825 | 63 | 351 | 0.9 | 1.7 | 0.00 | 0.31 | 0.06 | 84 | 1022.3 |
| 20260501204335 | 63 | 351 | 0.0 | 1.7 | 0.00 | 0.31 | 0.06 | 84 | 1022.3 |
| 20260501203826 | 63 | 351 | 0.0 | 1.7 | 0.00 | 0.31 | 0.06 | 84 | 1022.3 |
| 20260501203336 | 63 | 351 | 0.0 | 0.0 | 0.00 | 0.31 | 0.06 | 83 | 1022.2 |
| 20260501202829 | 63 | 351 | 0.0 | 0.0 | 0.00 | 0.31 | 0.06 | 83 | 1022.1 |
| 20260501202326 | 63 | 351 | 0.0 | 1.7 | 0.00 | 0.31 | 0.06 | 83 | 1022.0 |
| 20260501201823 | 63 | 351 | 0.0 | 1.7 | 0.00 | 0.31 | 0.06 | 83 | 1021.9 |
| 20260501201334 | 63 | 351 | 0.9 | 2.6 | 0.00 | 0.31 | 0.06 | 83 | 1021.9 |
| 20260501200824 | 63 | 351 | 0.0 | 2.6 | 0.00 | 0.31 | 0.06 | 83 | 1021.7 |
| 20260501200318 | 63 | 351 | 0.9 | 1.7 | 0.00 | 0.31 | 0.06 | 83 | 1021.7 |
| 20260501195832 | 64 | 351 | 0.0 | 1.7 | 0.00 | 0.31 | 0.06 | 83 | 1021.7 |
| 20260501195322 | 64 | 351 | 0.0 | 1.7 | 0.00 | 0.31 | 0.06 | 83 | 1021.5 |
| 20260501194833 | 64 | 351 | 0.0 | 0.9 | 0.00 | 0.31 | 0.06 | 83 | 1021.5 |
| 20260501194327 | 64 | 351 | 0.0 | 0.9 | 0.00 | 0.31 | 0.06 | 83 | 1021.4 |
| 20260501193838 | 64 | 351 | 0.0 | 0.0 | 0.00 | 0.31 | 0.06 | 82 | 1021.5 |
| 20260501193328 | 64 | 351 | 0.0 | 0.9 | 0.00 | 0.31 | 0.06 | 82 | 1021.4 |
| 20260501192838 | 64 | 351 | 0.0 | 0.9 | 0.00 | 0.31 | 0.06 | 82 | 1021.4 |
| 20260501192329 | 64 | 351 | 0.0 | 0.9 | 0.00 | 0.31 | 0.06 | 82 | 1021.3 |
| 20260501191821 | 65 | 351 | 0.0 | 1.7 | 0.00 | 0.31 | 0.06 | 82 | 1021.2 |
| 20260501191332 | 65 | 351 | 0.0 | 4.3 | 0.00 | 0.31 | 0.06 | 82 | 1021.2 |
| 20260501190828 | 65 | 351 | 0.9 | 4.3 | 0.00 | 0.31 | 0.06 | 82 | 1021.1 |
| 20260501190325 | 65 | 351 | 0.9 | 4.3 | 0.00 | 0.31 | 0.06 | 82 | 1021.1 |
| 20260501185817 | 65 | 351 | 0.0 | 3.5 | 0.00 | 0.31 | 0.06 | 81 | 1021.1 |
| 20260501185334 | 65 | 351 | 1.7 | 4.3 | 0.00 | 0.31 | 0.06 | 81 | 1021.1 |
| 20260501184827 | 65 | 351 | 0.9 | 4.3 | 0.00 | 0.31 | 0.06 | 81 | 1021.1 |
| 20260501184338 | 65 | 351 | 0.9 | 5.2 | 0.00 | 0.31 | 0.06 | 81 | 1021.1 |
| 20260501183827 | 65 | 351 | 1.7 | 5.2 | 0.00 | 0.31 | 0.06 | 81 | 1021.0 |
| 20260501183318 | 66 | 351 | 0.0 | 5.2 | 0.00 | 0.31 | 0.06 | 81 | 1020.9 |
| 20260501182830 | 66 | 351 | 1.7 | 4.3 | 0.00 | 0.31 | 0.06 | 81 | 1020.9 |
| 20260501182328 | 66 | 351 | 0.0 | 3.5 | 0.00 | 0.31 | 0.06 | 81 | 1020.9 |
| 20260501181842 | 66 | 351 | 0.9 | 2.6 | 0.00 | 0.31 | 0.06 | 80 | 1020.9 |
| 20260501181334 | 66 | 351 | 0.9 | 5.2 | 0.00 | 0.31 | 0.06 | 80 | 1020.7 |